Time;durP1;ratioP1;P1;durP2;ratioP2;P2;SDS_P1;SDS_P2;PMS_P1;PMS_P2;Temp;Humidity;BMP_temperature;BMP_pressure;BME280_temperature;BME280_humidity;BME280_pressure;Samples;Min_cycle;Max_cycle;Signal;HPM_P1;HPM_P2
2019/06/08 00:01:29;;;;;;;2.6;1.1;;;;;;;17.26;46.60742;1003.499;;;;
2019/06/08 00:03:54;;;;;;;2.7;1.1;;;;;;;17.24;46.74609;1003.449;;;;
2019/06/08 00:06:19;;;;;;;2.9;1;;;;;;;17.17;46.92383;1003.467;;;;
2019/06/08 00:08:45;;;;;;;3.4;1.1;;;;;;;17.22;46.83594;1003.673;;;;
2019/06/08 00:11:10;;;;;;;2.5;1.1;;;;;;;17.24;46.88477;1003.727;;;;
2019/06/08 00:13:35;;;;;;;3.3;1.2;;;;;;;17.12;47.27832;1003.719;;;;
2019/06/08 00:16:00;;;;;;;2;0.8;;;;;;;17.17;47.19141;1003.656;;;;
2019/06/08 00:18:25;;;;;;;2.6;1.1;;;;;;;17.11;47.52246;1003.751;;;;
2019/06/08 00:20:50;;;;;;;1.8;1;;;;;;;17.15;47.45605;1003.876;;;;
2019/06/08 00:23:16;;;;;;;3;0.9;;;;;;;17.19;47.41406;1003.861;;;;
2019/06/08 00:25:41;;;;;;;1.9;1.2;;;;;;;17.26;47.3291;1003.831;;;;
2019/06/08 00:28:07;;;;;;;2.5;1.1;;;;;;;17.23;47.49805;1003.842;;;;
2019/06/08 00:30:32;;;;;;;2.7;1.1;;;;;;;17.21;47.60254;1003.918;;;;
2019/06/08 00:32:57;;;;;;;1.9;0.9;;;;;;;17.15;47.80469;1003.977;;;;
2019/06/08 00:35:26;;;;;;;1.7;0.8;;;;;;;17.14;47.90918;1003.956;;;;
2019/06/08 00:38:12;;;;;;;1.9;1;;;;;;;17.18;48.00488;1003.985;;;;
2019/06/08 00:40:38;;;;;;;2;0.8;;;;;;;17.13;48.09277;1004.164;;;;
2019/06/08 00:43:21;;;;;;;1.6;1;;;;;;;17.22;47.88184;1004.226;;;;
2019/06/08 00:45:49;;;;;;;3.1;1;;;;;;;17.18;48.0752;1004.236;;;;
2019/06/08 00:48:23;;;;;;;2.4;1.1;;;;;;;17.21;48.2998;1004.263;;;;
2019/06/08 00:50:49;;;;;;;2.7;1.1;;;;;;;17.22;48.34668;1004.384;;;;
2019/06/08 00:53:14;;;;;;;3;0.9;;;;;;;17.21;48.4043;1004.417;;;;
2019/06/08 00:55:39;;;;;;;4.7;1.2;;;;;;;17.29;48.12109;1004.428;;;;
2019/06/08 00:58:14;;;;;;;3;1.1;;;;;;;17.29;48.27344;1004.308;;;;
2019/06/08 01:00:42;;;;;;;2.5;1;;;;;;;17.25;48.40918;1004.463;;;;
2019/06/08 01:03:10;;;;;;;3;1;;;;;;;17.24;48.55957;1004.589;;;;
2019/06/08 01:05:41;;;;;;;1.9;1;;;;;;;17.23;48.88379;1004.705;;;;
2019/06/08 01:08:22;;;;;;;2.6;1.1;;;;;;;17.23;48.94043;1004.582;;;;
2019/06/08 01:10:47;;;;;;;2.4;0.9;;;;;;;17.09;49.29785;1004.672;;;;
2019/06/08 01:13:12;;;;;;;2.6;1.1;;;;;;;17.02;49.70801;1004.713;;;;
2019/06/08 01:15:37;;;;;;;3.3;1.2;;;;;;;16.97;50.18945;1004.666;;;;
2019/06/08 01:18:02;;;;;;;2;1.1;;;;;;;16.98;50.27344;1004.785;;;;
2019/06/08 01:20:28;;;;;;;2.2;1;;;;;;;16.97;50.46875;1004.908;;;;
2019/06/08 01:22:53;;;;;;;2.2;0.9;;;;;;;17.01;50.4043;1005.077;;;;
2019/06/08 01:25:18;;;;;;;2.6;1;;;;;;;16.93;50.70996;1005.139;;;;
2019/06/08 01:27:43;;;;;;;1.4;1.1;;;;;;;16.94;50.82617;1005.227;;;;
2019/06/08 01:30:10;;;;;;;2.5;1.2;;;;;;;17.03;50.90625;1005.411;;;;
2019/06/08 01:32:35;;;;;;;3.1;1.2;;;;;;;17.01;50.89258;1005.441;;;;
2019/06/08 01:35:00;;;;;;;3.1;1.1;;;;;;;17.01;50.98535;1005.31;;;;
2019/06/08 01:37:26;;;;;;;2.8;1.2;;;;;;;16.99;51.08789;1005.307;;;;
2019/06/08 01:39:51;;;;;;;3.3;1.1;;;;;;;16.94;51.33691;1005.287;;;;
2019/06/08 01:42:16;;;;;;;1.9;1.1;;;;;;;17;51.11133;1005.187;;;;
2019/06/08 01:44:41;;;;;;;4.1;1.1;;;;;;;16.98;51.29492;1005.225;;;;
2019/06/08 01:47:06;;;;;;;2.8;1.1;;;;;;;16.97;51.43262;1005.274;;;;
2019/06/08 01:49:31;;;;;;;2.6;1.2;;;;;;;16.91;51.69434;1005.298;;;;
2019/06/08 01:51:56;;;;;;;3.7;1.2;;;;;;;16.81;52.04199;1005.327;;;;
2019/06/08 01:54:25;;;;;;;2.5;1.3;;;;;;;16.86;52.10547;1005.226;;;;
2019/06/08 01:56:50;;;;;;;3.3;1.2;;;;;;;16.77;52.53711;1005.374;;;;
2019/06/08 01:59:15;;;;;;;2.8;1.2;;;;;;;16.87;52.4668;1005.603;;;;
2019/06/08 02:01:40;;;;;;;2.9;1.1;;;;;;;16.81;52.7627;1005.671;;;;
2019/06/08 02:04:05;;;;;;;2.2;1.2;;;;;;;16.87;52.55957;1005.692;;;;
2019/06/08 02:06:30;;;;;;;2.5;1.3;;;;;;;16.76;52.89551;1005.589;;;;
2019/06/08 02:08:56;;;;;;;2.2;1.1;;;;;;;16.75;52.71973;1005.362;;;;
2019/06/08 02:11:21;;;;;;;2.5;1.1;;;;;;;16.77;52.28027;1005.374;;;;
2019/06/08 02:13:46;;;;;;;2.6;1;;;;;;;16.7;52.14551;1005.552;;;;
2019/06/08 02:16:11;;;;;;;2.8;1.2;;;;;;;16.64;52.09082;1005.496;;;;
2019/06/08 02:18:36;;;;;;;2.4;1.1;;;;;;;16.6;52.45801;1005.484;;;;
2019/06/08 02:21:01;;;;;;;4;1.3;;;;;;;16.54;52.28906;1005.579;;;;
2019/06/08 02:23:26;;;;;;;6.4;1.5;;;;;;;16.65;51.49902;1005.552;;;;
2019/06/08 02:25:51;;;;;;;4.9;1.2;;;;;;;16.52;51.64746;1005.476;;;;
2019/06/08 02:28:16;;;;;;;3.6;1.2;;;;;;;16.47;51.36328;1005.519;;;;
2019/06/08 02:30:41;;;;;;;2.8;1.2;;;;;;;16.54;51.05859;1005.625;;;;
2019/06/08 02:33:07;;;;;;;2.7;1.3;;;;;;;16.44;51.2793;1005.648;;;;
2019/06/08 02:35:32;;;;;;;1.9;1;;;;;;;16.44;51.25586;1005.597;;;;
2019/06/08 02:37:57;;;;;;;4.2;1.5;;;;;;;16.52;50.80078;1005.686;;;;
2019/06/08 02:40:23;;;;;;;4.1;1.3;;;;;;;16.35;50.87402;1005.787;;;;
2019/06/08 02:42:48;;;;;;;4.1;1.3;;;;;;;16.36;50.86328;1005.847;;;;
2019/06/08 02:45:19;;;;;;;4;1.2;;;;;;;16.38;50.08691;1005.796;;;;
2019/06/08 02:47:52;;;;;;;3.2;1.1;;;;;;;16.26;50.59668;1005.828;;;;
2019/06/08 02:50:17;;;;;;;2.7;1.4;;;;;;;16.11;50.60254;1005.84;;;;
2019/06/08 02:52:42;;;;;;;4.2;1.5;;;;;;;16.18;50.40039;1005.791;;;;
2019/06/08 02:55:07;;;;;;;3.7;1.1;;;;;;;16.08;50.62207;1005.774;;;;
2019/06/08 02:57:33;;;;;;;2.9;1.3;;;;;;;16.02;50.82324;1005.919;;;;
2019/06/08 02:59:58;;;;;;;3.7;1.3;;;;;;;16.12;50.19727;1005.899;;;;
2019/06/08 03:02:44;;;;;;;4.2;1.5;;;;;;;16.09;49.9502;1005.857;;;;
2019/06/08 03:05:13;;;;;;;5;1.3;;;;;;;16.15;49.60938;1005.8;;;;
2019/06/08 03:07:38;;;;;;;5.1;1.8;;;;;;;16.21;49.61621;1005.917;;;;
2019/06/08 03:10:03;;;;;;;3.5;1.5;;;;;;;16.14;49.82813;1005.904;;;;
2019/06/08 03:12:28;;;;;;;4;1.3;;;;;;;16.17;49.61133;1005.982;;;;
2019/06/08 03:14:53;;;;;;;4;1.3;;;;;;;16.2;49.55762;1005.946;;;;
2019/06/08 03:17:18;;;;;;;5.4;1.5;;;;;;;16.12;49.80273;1005.999;;;;
2019/06/08 03:19:43;;;;;;;4.7;1.8;;;;;;;16.13;49.89648;1005.984;;;;
2019/06/08 03:22:11;;;;;;;4.7;1.4;;;;;;;16.08;49.91406;1006.013;;;;
2019/06/08 03:24:45;;;;;;;5.7;1.7;;;;;;;15.97;49.64648;1006.127;;;;
2019/06/08 03:27:12;;;;;;;6.2;1.7;;;;;;;15.95;49.80762;1006.101;;;;
2019/06/08 03:29:38;;;;;;;4.5;1.5;;;;;;;16.03;49.38672;1006.004;;;;
2019/06/08 03:32:04;;;;;;;8.6;1.7;;;;;;;16.03;49.3291;1006.047;;;;
2019/06/08 03:34:29;;;;;;;5.6;1.5;;;;;;;16.03;49.31738;1006.121;;;;
2019/06/08 03:37:15;;;;;;;4.2;1.6;;;;;;;15.89;49.62598;1006.093;;;;
2019/06/08 03:39:40;;;;;;;4.1;1.6;;;;;;;15.88;49.85645;1006.338;;;;
2019/06/08 03:42:05;;;;;;;5.5;1.8;;;;;;;15.79;49.96191;1006.42;;;;
2019/06/08 03:44:30;;;;;;;4.6;1.8;;;;;;;15.75;50.09668;1006.446;;;;
2019/06/08 03:46:55;;;;;;;6;1.8;;;;;;;15.76;50.24902;1006.495;;;;
2019/06/08 03:49:22;;;;;;;4.4;1.5;;;;;;;15.86;50.3877;1006.581;;;;
2019/06/08 03:51:47;;;;;;;6.6;1.6;;;;;;;15.73;51.24121;1006.534;;;;
2019/06/08 03:54:12;;;;;;;7.2;1.6;;;;;;;15.83;51.25488;1006.566;;;;
2019/06/08 03:56:41;;;;;;;5.9;1.7;;;;;;;15.68;52.20996;1006.632;;;;
2019/06/08 03:59:04;;;;;;;5;1.5;;;;;;;15.69;52.63867;1006.647;;;;
2019/06/08 04:02:37;;;;;;;6.4;1.6;;;;;;;15.63;53.20996;1006.717;;;;
2019/06/08 04:05:15;;;;;;;4.7;1.5;;;;;;;15.63;53.8252;1006.734;;;;
2019/06/08 04:07:41;;;;;;;5.3;1.5;;;;;;;15.57;54.65137;1006.861;;;;
2019/06/08 04:10:06;;;;;;;4.9;1.5;;;;;;;15.59;55.15137;1006.871;;;;
2019/06/08 04:12:31;;;;;;;3.4;1.4;;;;;;;15.69;55.34961;1006.95;;;;
2019/06/08 04:14:56;;;;;;;5.5;1.5;;;;;;;15.61;56.02344;1006.942;;;;
2019/06/08 04:17:21;;;;;;;3.7;1.3;;;;;;;15.59;56.65625;1006.952;;;;
2019/06/08 04:19:47;;;;;;;5.5;1.3;;;;;;;15.66;56.85156;1006.951;;;;
2019/06/08 04:22:12;;;;;;;4.2;1.4;;;;;;;15.72;57.02246;1006.996;;;;
2019/06/08 04:24:37;;;;;;;4.5;1.3;;;;;;;15.68;56.95898;1007.067;;;;
2019/06/08 04:27:02;;;;;;;4.4;1.2;;;;;;;15.7;56.54395;1007.071;;;;
2019/06/08 04:29:27;;;;;;;5.7;1.6;;;;;;;15.65;56.04102;1007.081;;;;
2019/06/08 04:31:52;;;;;;;3.9;1.5;;;;;;;15.7;54.85352;1007.068;;;;
2019/06/08 04:34:17;;;;;;;6.4;1.6;;;;;;;15.69;53.79688;1007.098;;;;
2019/06/08 04:36:42;;;;;;;4.8;1.7;;;;;;;15.63;53.22266;1007.216;;;;
2019/06/08 04:39:08;;;;;;;4.9;1.5;;;;;;;15.66;52.77441;1007.292;;;;
2019/06/08 04:41:33;;;;;;;5.2;1.6;;;;;;;15.69;51.58398;1007.282;;;;
2019/06/08 04:43:58;;;;;;;4.2;1.5;;;;;;;15.82;50.30176;1007.29;;;;
2019/06/08 04:46:23;;;;;;;3.8;1.7;;;;;;;16;49.4873;1007.333;;;;
2019/06/08 04:48:48;;;;;;;5.1;1.9;;;;;;;16.24;48.32031;1007.4;;;;
2019/06/08 04:51:13;;;;;;;5.6;1.6;;;;;;;16.45;47.09082;1007.412;;;;
2019/06/08 04:53:43;;;;;;;4.6;1.7;;;;;;;16.73;45.78418;1007.54;;;;
2019/06/08 04:56:08;;;;;;;10.3;1.9;;;;;;;16.84;45.56445;1007.531;;;;
2019/06/08 04:58:41;;;;;;;6.6;2;;;;;;;17.03;44.61914;1007.589;;;;
2019/06/08 05:01:06;;;;;;;7.1;1.6;;;;;;;16.6;45.05273;1007.628;;;;
2019/06/08 05:03:31;;;;;;;5.9;1.8;;;;;;;16.58;44.77148;1007.623;;;;
2019/06/08 05:05:56;;;;;;;7;2.1;;;;;;;16.42;44.7207;1007.632;;;;
2019/06/08 05:08:22;;;;;;;7.5;2.4;;;;;;;16.47;44.66699;1007.73;;;;
2019/06/08 05:10:47;;;;;;;7.4;1.9;;;;;;;16.4;44.63672;1007.676;;;;
2019/06/08 05:13:12;;;;;;;8.3;2.1;;;;;;;16.43;44.40723;1007.828;;;;
2019/06/08 05:15:37;;;;;;;7.9;1.9;;;;;;;16.44;44.45605;1007.82;;;;
2019/06/08 05:18:02;;;;;;;5;1.8;;;;;;;16.41;44.20898;1007.85;;;;
2019/06/08 05:20:27;;;;;;;5.6;2.1;;;;;;;16.31;44.30273;1007.882;;;;
2019/06/08 05:22:52;;;;;;;6;2.1;;;;;;;16.45;43.85352;1007.953;;;;
2019/06/08 05:25:18;;;;;;;7.3;2.1;;;;;;;16.48;43.72852;1008.009;;;;
2019/06/08 05:27:43;;;;;;;5.6;1.8;;;;;;;16.52;43.46484;1008.028;;;;
2019/06/08 05:30:08;;;;;;;6.6;2;;;;;;;16.53;42.96777;1007.989;;;;
2019/06/08 05:32:33;;;;;;;6.5;1.8;;;;;;;16.59;42.47363;1008.069;;;;
2019/06/08 05:34:58;;;;;;;6.6;2.1;;;;;;;16.64;41.53809;1008.088;;;;
2019/06/08 05:37:45;;;;;;;5;1.7;;;;;;;16.63;41.93262;1008.114;;;;
2019/06/08 05:40:10;;;;;;;7.3;2.1;;;;;;;16.64;41.56152;1008.102;;;;
2019/06/08 05:42:36;;;;;;;8.5;2.1;;;;;;;16.82;41.32227;1008.152;;;;
2019/06/08 05:45:01;;;;;;;5.4;1.9;;;;;;;16.9;41.08691;1008.168;;;;
2019/06/08 05:47:50;;;;;;;6.3;2;;;;;;;16.98;40.95508;1008.221;;;;
2019/06/08 05:50:15;;;;;;;7.7;2.3;;;;;;;17.2;40.54492;1008.323;;;;
2019/06/08 05:52:40;;;;;;;5.2;1.8;;;;;;;17.34;40.01074;1008.234;;;;
2019/06/08 05:55:05;;;;;;;6.5;2;;;;;;;17.59;38.9873;1008.312;;;;
2019/06/08 05:57:30;;;;;;;5.3;1.8;;;;;;;17.7;38.67188;1008.315;;;;
2019/06/08 05:59:55;;;;;;;6.7;2;;;;;;;18.12;38.06738;1008.299;;;;
2019/06/08 06:02:20;;;;;;;5.5;1.8;;;;;;;17.69;38.62402;1008.409;;;;
2019/06/08 06:04:46;;;;;;;6;2.3;;;;;;;17.87;38.20801;1008.403;;;;
2019/06/08 06:07:11;;;;;;;6.6;2;;;;;;;18.16;37.81445;1008.371;;;;
2019/06/08 06:09:36;;;;;;;5.8;1.9;;;;;;;17.95;37.81934;1008.55;;;;
2019/06/08 06:12:01;;;;;;;6.7;2.4;;;;;;;17.87;36.9043;1008.419;;;;
2019/06/08 06:14:26;;;;;;;6.5;1.7;;;;;;;17.84;37.30957;1008.573;;;;
2019/06/08 06:17:02;;;;;;;5.9;1.9;;;;;;;18.05;36.46582;1008.365;;;;
2019/06/08 06:19:27;;;;;;;6.5;2.1;;;;;;;18.54;35.81836;1008.615;;;;
2019/06/08 06:21:54;;;;;;;8.1;2.1;;;;;;;18.3;36.04395;1008.538;;;;
2019/06/08 06:24:19;;;;;;;6.1;2;;;;;;;18.2;36.28027;1008.531;;;;
2019/06/08 06:26:44;;;;;;;5.8;1.9;;;;;;;19.04;34.89063;1008.554;;;;
2019/06/08 06:29:10;;;;;;;7.1;1.8;;;;;;;18.61;35.18262;1008.545;;;;
2019/06/08 06:31:35;;;;;;;4.6;1.7;;;;;;;18.61;35.26367;1008.56;;;;
2019/06/08 06:34:08;;;;;;;6.7;1.7;;;;;;;19.53;34.09961;1008.664;;;;
2019/06/08 06:36:33;;;;;;;6.8;1.9;;;;;;;19.18;34.1543;1008.643;;;;
2019/06/08 06:39:06;;;;;;;5.5;1.8;;;;;;;19.41;33.54102;1008.731;;;;
2019/06/08 06:41:31;;;;;;;6.4;1.9;;;;;;;19.37;34.33203;1008.794;;;;
2019/06/08 06:43:57;;;;;;;5.6;1.8;;;;;;;19.46;33.36914;1008.818;;;;
2019/06/08 06:46:22;;;;;;;8.3;2.2;;;;;;;19.79;33.01953;1008.811;;;;
2019/06/08 06:48:47;;;;;;;6.1;2;;;;;;;19.9;32.96973;1008.865;;;;
2019/06/08 06:51:12;;;;;;;5.2;1.9;;;;;;;20.14;32.23828;1008.89;;;;
2019/06/08 06:53:37;;;;;;;7.2;1.8;;;;;;;21.06;30.72266;1008.97;;;;
2019/06/08 06:56:02;;;;;;;5.7;2;;;;;;;21.66;30.02441;1008.912;;;;
2019/06/08 06:58:27;;;;;;;5.9;2.1;;;;;;;21.68;29.76758;1009.012;;;;
2019/06/08 07:00:53;;;;;;;7.9;2.1;;;;;;;22.42;28.77051;1009.058;;;;
2019/06/08 07:03:18;;;;;;;7.4;2.2;;;;;;;23.25;27.54004;1009.044;;;;
2019/06/08 07:05:43;;;;;;;4.8;1.9;;;;;;;24.09;26.77734;1009.146;;;;
2019/06/08 07:08:08;;;;;;;6.7;1.8;;;;;;;23.83;27.0332;1009.07;;;;
2019/06/08 07:10:34;;;;;;;5.7;1.8;;;;;;;24.21;26.38281;1009.128;;;;
2019/06/08 07:12:59;;;;;;;6.2;2;;;;;;;24.31;26.08105;1009.13;;;;
2019/06/08 07:15:24;;;;;;;7.3;2.1;;;;;;;24.69;25.80762;1009.184;;;;
2019/06/08 07:17:49;;;;;;;6.5;1.9;;;;;;;23.68;26.85938;1009.157;;;;
2019/06/08 07:20:14;;;;;;;5.4;1.9;;;;;;;22.2;29.12109;1009.303;;;;
2019/06/08 07:22:40;;;;;;;6.4;2.1;;;;;;;21.41;30.39453;1009.253;;;;
2019/06/08 07:25:06;;;;;;;5.2;1.8;;;;;;;22.15;29.54102;1009.314;;;;
2019/06/08 07:27:31;;;;;;;5.6;2;;;;;;;22.19;29.61426;1009.314;;;;
2019/06/08 07:29:56;;;;;;;6.7;2;;;;;;;20.3;31.71191;1009.266;;;;
2019/06/08 07:32:21;;;;;;;6.9;2.1;;;;;;;20.15;32.82422;1009.202;;;;
2019/06/08 07:34:46;;;;;;;4.5;1.9;;;;;;;19.85;33.34082;1009.215;;;;
2019/06/08 07:37:26;;;;;;;6.9;1.9;;;;;;;19.92;33.27539;1009.262;;;;
2019/06/08 07:40:01;;;;;;;6.5;1.7;;;;;;;20.04;32.52441;1009.228;;;;
2019/06/08 07:42:26;;;;;;;6.5;1.8;;;;;;;21.04;30.61621;1009.21;;;;
2019/06/08 07:44:55;;;;;;;4.6;1.7;;;;;;;21.29;30.06934;1009.245;;;;
2019/06/08 07:47:29;;;;;;;6.7;1.7;;;;;;;21.42;29.78613;1009.206;;;;
2019/06/08 07:49:54;;;;;;;7.6;1.9;;;;;;;23.51;26.91895;1009.193;;;;
2019/06/08 07:52:19;;;;;;;7.1;2.1;;;;;;;24.35;25.77734;1009.235;;;;
2019/06/08 07:54:44;;;;;;;5.7;2;;;;;;;25.11;24.87305;1009.228;;;;
2019/06/08 07:57:09;;;;;;;5.5;1.9;;;;;;;24.58;25.94336;1009.196;;;;
2019/06/08 07:59:34;;;;;;;6;1.7;;;;;;;24.65;25.32129;1009.221;;;;
2019/06/08 08:01:59;;;;;;;5.3;1.8;;;;;;;25.09;25.02637;1009.237;;;;
2019/06/08 08:04:24;;;;;;;9.6;2.2;;;;;;;24.91;25.41895;1009.185;;;;
2019/06/08 08:06:50;;;;;;;4.1;1.8;;;;;;;26.38;23.40137;1009.235;;;;
2019/06/08 08:09:15;;;;;;;5.7;1.9;;;;;;;25.98;23.5;1009.26;;;;
2019/06/08 08:11:40;;;;;;;9.2;2.2;;;;;;;25.93;23.58008;1009.154;;;;
2019/06/08 08:14:05;;;;;;;5.4;1.9;;;;;;;26.6;22.78418;1009.16;;;;
2019/06/08 08:16:31;;;;;;;6.2;2.1;;;;;;;26.06;23.78809;1009.188;;;;
2019/06/08 08:18:56;;;;;;;10.1;2;;;;;;;28.01;21.5332;1009.134;;;;
2019/06/08 08:21:23;;;;;;;5.1;1.8;;;;;;;26.74;22.55371;1009.162;;;;
2019/06/08 08:23:48;;;;;;;5.5;1.9;;;;;;;26.29;22.96973;1009.278;;;;
2019/06/08 08:26:13;;;;;;;8.1;2;;;;;;;25.4;23.91895;1009.184;;;;
2019/06/08 08:28:39;;;;;;;6.2;2;;;;;;;22.86;27.29199;1009.196;;;;
2019/06/08 08:31:04;;;;;;;4.2;1.9;;;;;;;23.63;26.49023;1009.14;;;;
2019/06/08 08:33:29;;;;;;;6;2.1;;;;;;;23.02;27.64355;1009.087;;;;
2019/06/08 08:35:58;;;;;;;4.8;1.9;;;;;;;23.62;27.23242;1009.133;;;;
2019/06/08 08:38:23;;;;;;;6;1.8;;;;;;;24.96;25.37402;1009.266;;;;
2019/06/08 08:40:48;;;;;;;4.7;1.7;;;;;;;25.47;23.47266;1009.19;;;;
2019/06/08 08:43:13;;;;;;;4.4;1.7;;;;;;;25.94;23.22461;1009.283;;;;
2019/06/08 08:45:38;;;;;;;4.5;1.8;;;;;;;25.06;23.00195;1009.292;;;;
2019/06/08 08:48:03;;;;;;;4.4;1.7;;;;;;;24.03;25.01465;1009.291;;;;
2019/06/08 08:50:29;;;;;;;4.8;1.9;;;;;;;23.94;25.18652;1009.286;;;;
2019/06/08 08:52:54;;;;;;;5.9;1.6;;;;;;;25.22;23.28223;1009.233;;;;
2019/06/08 08:55:20;;;;;;;4.4;1.8;;;;;;;24.35;23.66309;1009.309;;;;
2019/06/08 08:57:45;;;;;;;6.6;1.7;;;;;;;24.19;24.2793;1009.293;;;;
2019/06/08 09:00:11;;;;;;;4;1.8;;;;;;;24.79;23.875;1009.244;;;;
2019/06/08 09:02:37;;;;;;;4.6;1.8;;;;;;;25.19;22.9375;1009.115;;;;
2019/06/08 09:05:01;;;;;;;6;1.8;;;;;;;25.42;22.52344;1009.254;;;;
2019/06/08 09:07:26;;;;;;;4.5;1.7;;;;;;;24.97;22.9502;1009.2;;;;
2019/06/08 09:09:51;;;;;;;6.3;1.8;;;;;;;24.46;24.11719;1009.333;;;;
2019/06/08 09:12:17;;;;;;;5.8;1.7;;;;;;;23.78;25.17773;1009.33;;;;
2019/06/08 09:14:57;;;;;;;5.3;2.1;;;;;;;23.4;25.71094;1009.433;;;;
2019/06/08 09:17:22;;;;;;;6.8;2.2;;;;;;;21.62;27.82617;1009.386;;;;
2019/06/08 09:19:58;;;;;;;5.1;1.8;;;;;;;21.13;28.51074;1009.411;;;;
2019/06/08 09:22:23;;;;;;;5.1;1.8;;;;;;;21.59;27.83594;1009.408;;;;
2019/06/08 09:24:48;;;;;;;3.6;1.5;;;;;;;22.53;27.03613;1009.388;;;;
2019/06/08 09:27:13;;;;;;;5;1.7;;;;;;;23.68;24.99512;1009.329;;;;
2019/06/08 09:29:38;;;;;;;4;1.6;;;;;;;24.45;24.08105;1009.417;;;;
2019/06/08 09:32:04;;;;;;;4.3;1.5;;;;;;;25.52;22.26758;1009.47;;;;
2019/06/08 09:34:29;;;;;;;5.4;1.5;;;;;;;24.8;22.69238;1009.37;;;;
2019/06/08 09:36:54;;;;;;;5.3;1.7;;;;;;;25.07;22.76563;1009.484;;;;
2019/06/08 09:39:19;;;;;;;3;1.4;;;;;;;25.89;21.27832;1009.445;;;;
2019/06/08 09:41:51;;;;;;;5.2;1.6;;;;;;;26.23;21.4248;1009.439;;;;
2019/06/08 09:44:16;;;;;;;6.6;1.7;;;;;;;26.2;20.87793;1009.492;;;;
2019/06/08 09:46:45;;;;;;;7.3;1.6;;;;;;;26.64;20.57715;1009.517;;;;
2019/06/08 09:49:10;;;;;;;4.5;1.7;;;;;;;26.12;21.60938;1009.475;;;;
2019/06/08 09:51:38;;;;;;;5.6;1.6;;;;;;;26.69;20.84082;1009.513;;;;
2019/06/08 09:54:03;;;;;;;3.4;1.7;;;;;;;26.62;21.24121;1009.638;;;;
2019/06/08 09:56:28;;;;;;;4.9;2.1;;;;;;;25.73;22.60938;1009.549;;;;
2019/06/08 09:58:54;;;;;;;4.5;1.4;;;;;;;25.59;22.36523;1009.633;;;;
2019/06/08 10:01:19;;;;;;;4.5;1.6;;;;;;;24.58;23.36719;1009.611;;;;
2019/06/08 10:03:44;;;;;;;5.6;1.6;;;;;;;24.71;23.05469;1009.635;;;;
2019/06/08 10:06:09;;;;;;;3.9;1.5;;;;;;;25.65;21.7041;1009.627;;;;
2019/06/08 10:08:34;;;;;;;5;1.5;;;;;;;26.16;20.99414;1009.731;;;;
2019/06/08 10:10:59;;;;;;;5.8;1.7;;;;;;;25.76;21.78125;1009.688;;;;
2019/06/08 10:13:24;;;;;;;5.7;1.6;;;;;;;25.72;21.79102;1009.634;;;;
2019/06/08 10:15:50;;;;;;;4.1;1.6;;;;;;;26.53;21.43945;1009.796;;;;
2019/06/08 10:18:15;;;;;;;3.3;1.4;;;;;;;26.63;20.95703;1009.703;;;;
2019/06/08 10:20:40;;;;;;;3.9;1.6;;;;;;;26.49;21.55566;1009.78;;;;
2019/06/08 10:23:05;;;;;;;3.8;1.5;;;;;;;25.4;22.04883;1009.578;;;;
2019/06/08 10:25:30;;;;;;;2.7;1.3;;;;;;;25.7;22.32324;1009.568;;;;
2019/06/08 10:27:55;;;;;;;3;1.7;;;;;;;25.25;22.97559;1009.613;;;;
2019/06/08 10:30:20;;;;;;;4;1.4;;;;;;;25.34;23.38281;1009.689;;;;
2019/06/08 10:32:46;;;;;;;4.9;1.9;;;;;;;24.74;23.08008;1009.662;;;;
2019/06/08 10:35:11;;;;;;;5;1.6;;;;;;;23.81;24.36426;1009.625;;;;
2019/06/08 10:37:36;;;;;;;3.8;1.5;;;;;;;23.56;25.33008;1009.709;;;;
2019/06/08 10:40:01;;;;;;;4.9;1.6;;;;;;;24.02;25.13281;1009.735;;;;
2019/06/08 10:42:27;;;;;;;4.6;1.5;;;;;;;23.25;25.84277;1009.66;;;;
2019/06/08 10:44:52;;;;;;;4.5;1.6;;;;;;;22.99;26.4873;1009.736;;;;
2019/06/08 10:47:17;;;;;;;5.6;1.7;;;;;;;22.94;26.24902;1009.714;;;;
2019/06/08 10:49:43;;;;;;;5.4;1.6;;;;;;;22.44;26.9834;1009.731;;;;
2019/06/08 10:52:08;;;;;;;4.8;1.6;;;;;;;22.52;27.15332;1009.744;;;;
2019/06/08 10:54:33;;;;;;;4.1;1.6;;;;;;;23.14;26.77832;1009.821;;;;
2019/06/08 10:57:18;;;;;;;4.1;1.5;;;;;;;23.36;26.30859;1009.594;;;;
2019/06/08 10:59:43;;;;;;;4;1.6;;;;;;;23.7;25.98633;1009.654;;;;
2019/06/08 11:02:09;;;;;;;4.8;1.6;;;;;;;22.82;26.86621;1009.656;;;;
2019/06/08 11:04:34;;;;;;;3.9;1.7;;;;;;;23.07;26.76367;1009.808;;;;
2019/06/08 11:06:59;;;;;;;3.9;1.6;;;;;;;23.27;25.59668;1009.727;;;;
2019/06/08 11:09:24;;;;;;;4.8;1.7;;;;;;;23.4;26.26367;1009.663;;;;
2019/06/08 11:11:49;;;;;;;5.3;1.6;;;;;;;23.18;26.32227;1009.721;;;;
2019/06/08 11:14:15;;;;;;;4.2;1.8;;;;;;;23.19;26.26367;1009.801;;;;
2019/06/08 11:16:40;;;;;;;4.1;1.6;;;;;;;23.27;26.65723;1009.67;;;;
2019/06/08 11:19:05;;;;;;;5.6;1.9;;;;;;;22.77;27.16895;1009.655;;;;
2019/06/08 11:21:30;;;;;;;4.4;1.7;;;;;;;22.86;27.05664;1009.699;;;;
2019/06/08 11:23:56;;;;;;;3.7;1.6;;;;;;;23.51;25.83496;1009.705;;;;
2019/06/08 11:26:21;;;;;;;5.1;1.6;;;;;;;23.7;25.92773;1009.626;;;;
2019/06/08 11:28:46;;;;;;;3.9;1.6;;;;;;;23.74;25.30469;1009.619;;;;
2019/06/08 11:31:11;;;;;;;4;1.7;;;;;;;23.19;26.22852;1009.614;;;;
2019/06/08 11:33:36;;;;;;;3.9;1.6;;;;;;;22.63;26.64258;1009.637;;;;
2019/06/08 11:36:01;;;;;;;6.1;1.8;;;;;;;23.19;26.5;1009.609;;;;
2019/06/08 11:38:26;;;;;;;4.6;1.4;;;;;;;23.71;25.99902;1009.672;;;;
2019/06/08 11:40:51;;;;;;;5;1.8;;;;;;;24.38;25.53125;1009.675;;;;
2019/06/08 11:43:16;;;;;;;3.8;1.7;;;;;;;24.92;24.70996;1009.647;;;;
2019/06/08 11:45:41;;;;;;;4.6;1.6;;;;;;;23.83;24.97949;1009.747;;;;
2019/06/08 11:48:07;;;;;;;3.6;1.4;;;;;;;23.7;25.4209;1009.664;;;;
2019/06/08 11:50:33;;;;;;;3.4;1.8;;;;;;;23.32;26.2832;1009.717;;;;
2019/06/08 11:53:03;;;;;;;2.8;1.3;;;;;;;23.22;26.15918;1009.682;;;;
2019/06/08 11:55:35;;;;;;;3.8;1.9;;;;;;;23.67;25.99707;1009.619;;;;
2019/06/08 11:58:04;;;;;;;6;2;;;;;;;23.96;25.74219;1009.598;;;;
2019/06/08 12:00:33;;;;;;;4.8;2;;;;;;;23.45;26.56152;1009.671;;;;
2019/06/08 12:02:58;;;;;;;4.5;1.5;;;;;;;23.32;26.24805;1009.623;;;;
2019/06/08 12:05:24;;;;;;;4.3;1.7;;;;;;;23.21;26.19336;1009.63;;;;
2019/06/08 12:07:49;;;;;;;4.1;1.5;;;;;;;22.99;26.6875;1009.688;;;;
2019/06/08 12:10:20;;;;;;;3.6;1.6;;;;;;;23.12;26.27148;1009.599;;;;
2019/06/08 12:12:45;;;;;;;6.1;1.4;;;;;;;22.92;26.71875;1009.64;;;;
2019/06/08 12:15:10;;;;;;;3.4;1.5;;;;;;;23.24;26.58496;1009.675;;;;
2019/06/08 12:17:53;;;;;;;3.7;1.6;;;;;;;23.04;26.86719;1009.713;;;;
2019/06/08 12:20:18;;;;;;;3.8;1.6;;;;;;;23.65;26.04199;1009.597;;;;
2019/06/08 12:22:43;;;;;;;3.4;1.5;;;;;;;24.13;25.83496;1009.624;;;;
2019/06/08 12:25:09;;;;;;;2.5;1.4;;;;;;;24.27;25.12305;1009.578;;;;
2019/06/08 12:27:34;;;;;;;4.8;1.6;;;;;;;24.4;24.74023;1009.626;;;;
2019/06/08 12:29:59;;;;;;;3.9;1.6;;;;;;;24.35;25.05664;1009.566;;;;
2019/06/08 12:32:31;;;;;;;3.4;1.5;;;;;;;23.93;25.48145;1009.624;;;;
2019/06/08 12:34:56;;;;;;;4.7;1.7;;;;;;;23.7;25.32617;1009.509;;;;
2019/06/08 12:37:21;;;;;;;3.9;1.6;;;;;;;23.7;25.17285;1009.46;;;;
2019/06/08 12:39:46;;;;;;;4.8;1.6;;;;;;;24.24;25.39258;1009.502;;;;
2019/06/08 12:42:12;;;;;;;3.7;1.5;;;;;;;24.15;24.56055;1009.634;;;;
2019/06/08 12:44:37;;;;;;;4.9;1.7;;;;;;;23.94;25.06836;1009.532;;;;
2019/06/08 12:47:10;;;;;;;3.4;1.5;;;;;;;24.08;24.84082;1009.538;;;;
2019/06/08 12:49:35;;;;;;;5.7;1.5;;;;;;;24;25.39063;1009.578;;;;
2019/06/08 12:52:00;;;;;;;5.7;1.5;;;;;;;24.02;25.02637;1009.537;;;;
2019/06/08 12:54:25;;;;;;;4.4;1.5;;;;;;;23.8;25.28516;1009.561;;;;
2019/06/08 12:56:50;;;;;;;4.4;1.6;;;;;;;23.51;25.04492;1009.491;;;;
2019/06/08 12:59:15;;;;;;;3.5;1.5;;;;;;;23.68;24.94824;1009.445;;;;
2019/06/08 13:01:40;;;;;;;4.8;1.5;;;;;;;23.61;25.23828;1009.475;;;;
2019/06/08 13:04:05;;;;;;;7.5;1.3;;;;;;;23.8;25.12012;1009.45;;;;
2019/06/08 13:06:31;;;;;;;3.5;1.4;;;;;;;23.48;25.41992;1009.47;;;;
2019/06/08 13:09:10;;;;;;;3.3;1.2;;;;;;;23.48;25.43262;1009.52;;;;
2019/06/08 13:11:46;;;;;;;2.8;1.5;;;;;;;23.47;25.50195;1009.54;;;;
2019/06/08 13:14:11;;;;;;;4.5;1.5;;;;;;;23.6;24.80176;1009.599;;;;
2019/06/08 13:16:36;;;;;;;2.8;1.4;;;;;;;23.69;25.01953;1009.473;;;;
2019/06/08 13:19:01;;;;;;;3.6;1.4;;;;;;;23.73;24.90332;1009.606;;;;
2019/06/08 13:21:26;;;;;;;3;1.6;;;;;;;23.45;25.09961;1009.625;;;;
2019/06/08 13:23:52;;;;;;;4.6;1.4;;;;;;;23.28;25.49121;1009.595;;;;
2019/06/08 13:26:17;;;;;;;4.4;1.9;;;;;;;23.36;25.9082;1009.564;;;;
2019/06/08 13:28:43;;;;;;;4.1;1.6;;;;;;;23.42;26.0293;1009.539;;;;
2019/06/08 13:31:08;;;;;;;4.9;1.8;;;;;;;23.58;26.07422;1009.52;;;;
2019/06/08 13:33:34;;;;;;;4.4;1.5;;;;;;;23.58;25.68457;1009.582;;;;
2019/06/08 13:35:59;;;;;;;2.7;1.3;;;;;;;23.88;26.26855;1009.542;;;;
2019/06/08 13:38:24;;;;;;;4.9;1.5;;;;;;;23.88;25.69043;1009.509;;;;
2019/06/08 13:40:50;;;;;;;4.1;1.5;;;;;;;23.51;27.46191;1009.608;;;;
2019/06/08 13:43:15;;;;;;;4.2;1.7;;;;;;;23.29;27.79004;1009.57;;;;
2019/06/08 13:45:41;;;;;;;5.4;1.7;;;;;;;22.81;28.31348;1009.641;;;;
2019/06/08 13:48:07;;;;;;;4.8;1.5;;;;;;;22.94;28.89844;1009.574;;;;
2019/06/08 13:50:32;;;;;;;3.5;1.5;;;;;;;23.07;29.37793;1009.586;;;;
2019/06/08 13:52:57;;;;;;;2.8;1.3;;;;;;;23.22;28.89355;1009.497;;;;
2019/06/08 13:55:24;;;;;;;4.7;2;;;;;;;23;29.44434;1009.568;;;;
2019/06/08 13:57:49;;;;;;;4.1;1.6;;;;;;;23.21;29.36328;1009.515;;;;
2019/06/08 14:00:14;;;;;;;2.9;1.5;;;;;;;23.33;28.88867;1009.549;;;;
2019/06/08 14:02:57;;;;;;;5.1;1.7;;;;;;;23.25;28.96582;1009.547;;;;
2019/06/08 14:05:22;;;;;;;4.5;1.7;;;;;;;23.32;29.37109;1009.52;;;;
2019/06/08 14:08:01;;;;;;;5.3;1.7;;;;;;;23.31;29.5127;1009.54;;;;
2019/06/08 14:10:27;;;;;;;4.4;1.8;;;;;;;23.5;29.37109;1009.516;;;;
2019/06/08 14:12:52;;;;;;;5;1.8;;;;;;;23.34;29.78516;1009.526;;;;
2019/06/08 14:15:27;;;;;;;4.3;1.8;;;;;;;23.48;29.87695;1009.517;;;;
2019/06/08 14:18:05;;;;;;;4.2;1.7;;;;;;;23.56;29.69336;1009.534;;;;
2019/06/08 14:20:30;;;;;;;4;1.6;;;;;;;23.98;29.96973;1009.466;;;;
2019/06/08 14:22:55;;;;;;;5.2;2;;;;;;;24.37;29.38184;1009.497;;;;